sensor_id;sensor_type;location;lat;lon;timestamp;P1;durP1;ratioP1;P2;durP2;ratioP2
18726;SDS011;9492;51.888;5.186;2023-11-19T00:00:10;10.03;;;3.83;;
18726;SDS011;9492;51.888;5.186;2023-11-19T00:02:40;9.03;;;4.00;;
18726;SDS011;9492;51.888;5.186;2023-11-19T00:05:06;11.80;;;3.60;;
18726;SDS011;9492;51.888;5.186;2023-11-19T00:07:36;8.80;;;4.30;;
18726;SDS011;9492;51.888;5.186;2023-11-19T00:10:06;9.03;;;3.40;;
18726;SDS011;9492;51.888;5.186;2023-11-19T00:12:34;11.13;;;3.97;;
18726;SDS011;9492;51.888;5.186;2023-11-19T00:15:00;11.00;;;3.63;;
18726;SDS011;9492;51.888;5.186;2023-11-19T00:17:27;11.83;;;4.00;;
18726;SDS011;9492;51.888;5.186;2023-11-19T00:19:53;8.23;;;3.73;;
18726;SDS011;9492;51.888;5.186;2023-11-19T00:22:19;11.07;;;3.27;;
18726;SDS011;9492;51.888;5.186;2023-11-19T00:24:46;10.87;;;3.80;;
18726;SDS011;9492;51.888;5.186;2023-11-19T00:27:12;10.83;;;3.53;;
18726;SDS011;9492;51.888;5.186;2023-11-19T00:29:38;10.27;;;3.10;;
18726;SDS011;9492;51.888;5.186;2023-11-19T00:32:05;11.73;;;3.57;;
18726;SDS011;9492;51.888;5.186;2023-11-19T00:34:32;11.53;;;3.77;;
18726;SDS011;9492;51.888;5.186;2023-11-19T00:36:58;13.70;;;4.30;;
18726;SDS011;9492;51.888;5.186;2023-11-19T00:39:24;14.03;;;3.50;;
18726;SDS011;9492;51.888;5.186;2023-11-19T00:41:50;16.23;;;3.67;;
18726;SDS011;9492;51.888;5.186;2023-11-19T00:44:16;7.97;;;3.40;;
18726;SDS011;9492;51.888;5.186;2023-11-19T00:46:42;15.03;;;3.93;;
18726;SDS011;9492;51.888;5.186;2023-11-19T00:49:08;12.87;;;3.43;;
18726;SDS011;9492;51.888;5.186;2023-11-19T00:51:36;13.70;;;3.70;;
18726;SDS011;9492;51.888;5.186;2023-11-19T00:54:03;14.47;;;3.47;;
18726;SDS011;9492;51.888;5.186;2023-11-19T00:56:29;13.53;;;3.60;;
18726;SDS011;9492;51.888;5.186;2023-11-19T00:58:55;13.20;;;3.37;;
18726;SDS011;9492;51.888;5.186;2023-11-19T01:01:21;13.57;;;4.50;;
18726;SDS011;9492;51.888;5.186;2023-11-19T01:03:47;17.37;;;4.03;;
18726;SDS011;9492;51.888;5.186;2023-11-19T01:06:13;15.47;;;3.70;;
18726;SDS011;9492;51.888;5.186;2023-11-19T01:08:42;15.13;;;3.90;;
18726;SDS011;9492;51.888;5.186;2023-11-19T01:11:18;15.80;;;3.83;;
18726;SDS011;9492;51.888;5.186;2023-11-19T01:13:45;14.03;;;3.53;;
18726;SDS011;9492;51.888;5.186;2023-11-19T01:16:11;10.67;;;3.43;;
18726;SDS011;9492;51.888;5.186;2023-11-19T01:18:38;16.73;;;4.50;;
18726;SDS011;9492;51.888;5.186;2023-11-19T01:21:04;11.00;;;3.17;;
18726;SDS011;9492;51.888;5.186;2023-11-19T01:23:30;17.27;;;3.97;;
18726;SDS011;9492;51.888;5.186;2023-11-19T01:25:57;14.57;;;3.67;;
18726;SDS011;9492;51.888;5.186;2023-11-19T01:28:23;15.27;;;3.47;;
18726;SDS011;9492;51.888;5.186;2023-11-19T01:30:52;16.43;;;3.80;;
18726;SDS011;9492;51.888;5.186;2023-11-19T01:33:18;12.23;;;3.27;;
18726;SDS011;9492;51.888;5.186;2023-11-19T01:35:45;20.03;;;4.97;;
18726;SDS011;9492;51.888;5.186;2023-11-19T01:38:11;22.83;;;4.90;;
18726;SDS011;9492;51.888;5.186;2023-11-19T01:40:37;29.60;;;4.93;;
18726;SDS011;9492;51.888;5.186;2023-11-19T01:43:03;17.93;;;4.13;;
18726;SDS011;9492;51.888;5.186;2023-11-19T01:45:30;23.87;;;4.83;;
18726;SDS011;9492;51.888;5.186;2023-11-19T01:47:56;20.07;;;5.37;;
18726;SDS011;9492;51.888;5.186;2023-11-19T01:50:25;22.30;;;5.20;;
18726;SDS011;9492;51.888;5.186;2023-11-19T01:52:55;24.33;;;5.43;;
18726;SDS011;9492;51.888;5.186;2023-11-19T01:55:22;20.87;;;4.73;;
18726;SDS011;9492;51.888;5.186;2023-11-19T01:57:49;22.43;;;5.43;;
18726;SDS011;9492;51.888;5.186;2023-11-19T02:00:16;18.63;;;5.40;;
18726;SDS011;9492;51.888;5.186;2023-11-19T02:02:42;22.20;;;5.60;;
18726;SDS011;9492;51.888;5.186;2023-11-19T02:05:12;25.20;;;5.73;;
18726;SDS011;9492;51.888;5.186;2023-11-19T02:07:39;20.97;;;5.07;;
18726;SDS011;9492;51.888;5.186;2023-11-19T02:10:07;30.80;;;5.97;;
18726;SDS011;9492;51.888;5.186;2023-11-19T02:12:38;23.73;;;6.33;;
18726;SDS011;9492;51.888;5.186;2023-11-19T02:15:08;28.30;;;5.93;;
18726;SDS011;9492;51.888;5.186;2023-11-19T02:17:34;34.03;;;6.67;;
18726;SDS011;9492;51.888;5.186;2023-11-19T02:20:02;26.50;;;5.77;;
18726;SDS011;9492;51.888;5.186;2023-11-19T02:22:28;23.03;;;6.33;;
18726;SDS011;9492;51.888;5.186;2023-11-19T02:24:55;24.03;;;6.23;;
18726;SDS011;9492;51.888;5.186;2023-11-19T02:27:31;21.77;;;6.43;;
18726;SDS011;9492;51.888;5.186;2023-11-19T02:29:58;24.63;;;6.10;;
18726;SDS011;9492;51.888;5.186;2023-11-19T02:32:27;29.30;;;6.00;;
18726;SDS011;9492;51.888;5.186;2023-11-19T02:34:55;34.10;;;7.20;;
18726;SDS011;9492;51.888;5.186;2023-11-19T02:37:21;27.17;;;6.37;;
18726;SDS011;9492;51.888;5.186;2023-11-19T02:39:48;32.90;;;7.17;;
18726;SDS011;9492;51.888;5.186;2023-11-19T02:42:14;34.17;;;8.53;;
18726;SDS011;9492;51.888;5.186;2023-11-19T02:44:43;31.90;;;6.80;;
18726;SDS011;9492;51.888;5.186;2023-11-19T02:47:09;25.47;;;6.17;;
18726;SDS011;9492;51.888;5.186;2023-11-19T02:49:35;33.40;;;6.27;;
18726;SDS011;9492;51.888;5.186;2023-11-19T02:52:02;31.00;;;7.63;;
18726;SDS011;9492;51.888;5.186;2023-11-19T02:54:30;34.20;;;7.27;;
18726;SDS011;9492;51.888;5.186;2023-11-19T02:57:00;34.33;;;7.67;;
18726;SDS011;9492;51.888;5.186;2023-11-19T02:59:28;31.60;;;7.30;;
18726;SDS011;9492;51.888;5.186;2023-11-19T03:02:03;25.43;;;6.87;;
18726;SDS011;9492;51.888;5.186;2023-11-19T03:04:31;32.43;;;7.20;;
18726;SDS011;9492;51.888;5.186;2023-11-19T03:06:57;34.87;;;8.17;;
18726;SDS011;9492;51.888;5.186;2023-11-19T03:09:26;30.27;;;6.47;;
18726;SDS011;9492;51.888;5.186;2023-11-19T03:11:54;35.20;;;7.73;;
18726;SDS011;9492;51.888;5.186;2023-11-19T03:14:20;29.50;;;7.67;;
18726;SDS011;9492;51.888;5.186;2023-11-19T03:16:47;33.43;;;6.70;;
18726;SDS011;9492;51.888;5.186;2023-11-19T03:19:13;34.67;;;7.73;;
18726;SDS011;9492;51.888;5.186;2023-11-19T03:21:40;34.33;;;6.60;;
18726;SDS011;9492;51.888;5.186;2023-11-19T03:24:06;39.73;;;7.53;;
18726;SDS011;9492;51.888;5.186;2023-11-19T03:26:33;33.13;;;7.33;;
18726;SDS011;9492;51.888;5.186;2023-11-19T03:28:59;31.17;;;6.80;;
18726;SDS011;9492;51.888;5.186;2023-11-19T03:31:25;39.27;;;7.03;;
18726;SDS011;9492;51.888;5.186;2023-11-19T03:33:51;31.13;;;6.73;;
18726;SDS011;9492;51.888;5.186;2023-11-19T03:36:17;28.60;;;6.67;;
18726;SDS011;9492;51.888;5.186;2023-11-19T03:38:43;34.83;;;7.97;;
18726;SDS011;9492;51.888;5.186;2023-11-19T03:41:10;36.93;;;6.07;;
18726;SDS011;9492;51.888;5.186;2023-11-19T03:43:36;34.10;;;7.00;;
18726;SDS011;9492;51.888;5.186;2023-11-19T03:46:02;32.43;;;7.20;;
18726;SDS011;9492;51.888;5.186;2023-11-19T03:48:30;36.97;;;7.83;;
18726;SDS011;9492;51.888;5.186;2023-11-19T03:50:56;36.23;;;6.40;;
18726;SDS011;9492;51.888;5.186;2023-11-19T03:53:22;29.00;;;6.40;;
18726;SDS011;9492;51.888;5.186;2023-11-19T03:55:49;37.40;;;6.77;;
18726;SDS011;9492;51.888;5.186;2023-11-19T03:58:15;24.57;;;5.97;;
18726;SDS011;9492;51.888;5.186;2023-11-19T04:00:41;34.17;;;6.43;;
18726;SDS011;9492;51.888;5.186;2023-11-19T04:03:07;35.37;;;6.57;;
18726;SDS011;9492;51.888;5.186;2023-11-19T04:05:33;34.20;;;7.60;;
18726;SDS011;9492;51.888;5.186;2023-11-19T04:07:59;30.33;;;7.50;;
18726;SDS011;9492;51.888;5.186;2023-11-19T04:10:25;30.67;;;6.23;;
18726;SDS011;9492;51.888;5.186;2023-11-19T04:12:52;29.83;;;6.30;;
18726;SDS011;9492;51.888;5.186;2023-11-19T04:15:18;29.80;;;6.43;;
18726;SDS011;9492;51.888;5.186;2023-11-19T04:17:44;33.87;;;7.70;;
18726;SDS011;9492;51.888;5.186;2023-11-19T04:20:11;26.93;;;6.07;;
18726;SDS011;9492;51.888;5.186;2023-11-19T04:22:38;29.67;;;6.17;;
18726;SDS011;9492;51.888;5.186;2023-11-19T04:25:07;38.50;;;7.60;;
18726;SDS011;9492;51.888;5.186;2023-11-19T04:27:34;42.30;;;7.47;;
18726;SDS011;9492;51.888;5.186;2023-11-19T04:30:00;26.73;;;5.90;;
18726;SDS011;9492;51.888;5.186;2023-11-19T04:32:27;30.70;;;7.00;;
18726;SDS011;9492;51.888;5.186;2023-11-19T04:34:53;30.00;;;7.50;;
18726;SDS011;9492;51.888;5.186;2023-11-19T04:37:19;26.53;;;6.57;;
18726;SDS011;9492;51.888;5.186;2023-11-19T04:39:45;33.07;;;7.33;;
18726;SDS011;9492;51.888;5.186;2023-11-19T04:42:11;30.23;;;6.77;;
18726;SDS011;9492;51.888;5.186;2023-11-19T04:44:37;39.00;;;6.63;;
18726;SDS011;9492;51.888;5.186;2023-11-19T04:47:03;31.53;;;7.43;;
18726;SDS011;9492;51.888;5.186;2023-11-19T04:49:30;34.07;;;8.27;;
18726;SDS011;9492;51.888;5.186;2023-11-19T04:51:56;30.13;;;7.00;;
18726;SDS011;9492;51.888;5.186;2023-11-19T04:54:22;34.27;;;6.90;;
18726;SDS011;9492;51.888;5.186;2023-11-19T04:56:48;31.20;;;7.10;;
18726;SDS011;9492;51.888;5.186;2023-11-19T04:59:14;31.70;;;7.20;;
18726;SDS011;9492;51.888;5.186;2023-11-19T05:01:40;25.60;;;6.50;;
18726;SDS011;9492;51.888;5.186;2023-11-19T05:04:07;30.30;;;6.23;;
18726;SDS011;9492;51.888;5.186;2023-11-19T05:06:34;27.77;;;6.60;;
18726;SDS011;9492;51.888;5.186;2023-11-19T05:09:00;35.50;;;7.50;;
18726;SDS011;9492;51.888;5.186;2023-11-19T05:11:26;35.20;;;7.17;;
18726;SDS011;9492;51.888;5.186;2023-11-19T05:13:53;43.70;;;8.90;;
18726;SDS011;9492;51.888;5.186;2023-11-19T05:16:19;32.40;;;6.87;;
18726;SDS011;9492;51.888;5.186;2023-11-19T05:18:46;44.30;;;8.37;;
18726;SDS011;9492;51.888;5.186;2023-11-19T05:21:12;34.17;;;8.90;;
18726;SDS011;9492;51.888;5.186;2023-11-19T05:23:38;29.50;;;6.67;;
18726;SDS011;9492;51.888;5.186;2023-11-19T05:26:04;24.30;;;5.00;;
18726;SDS011;9492;51.888;5.186;2023-11-19T05:28:30;31.97;;;7.37;;
18726;SDS011;9492;51.888;5.186;2023-11-19T05:30:56;33.60;;;5.90;;
18726;SDS011;9492;51.888;5.186;2023-11-19T05:33:23;36.70;;;7.60;;
18726;SDS011;9492;51.888;5.186;2023-11-19T05:35:49;32.63;;;8.07;;
18726;SDS011;9492;51.888;5.186;2023-11-19T05:38:14;35.93;;;8.20;;
18726;SDS011;9492;51.888;5.186;2023-11-19T05:40:41;32.83;;;7.83;;
18726;SDS011;9492;51.888;5.186;2023-11-19T05:43:07;35.37;;;7.07;;
18726;SDS011;9492;51.888;5.186;2023-11-19T05:45:33;41.57;;;8.23;;
18726;SDS011;9492;51.888;5.186;2023-11-19T05:47:59;35.87;;;7.17;;
18726;SDS011;9492;51.888;5.186;2023-11-19T05:50:25;41.70;;;8.30;;
18726;SDS011;9492;51.888;5.186;2023-11-19T05:52:51;36.67;;;6.63;;
18726;SDS011;9492;51.888;5.186;2023-11-19T05:55:18;30.83;;;7.47;;
18726;SDS011;9492;51.888;5.186;2023-11-19T05:57:44;29.13;;;6.80;;
18726;SDS011;9492;51.888;5.186;2023-11-19T06:00:10;36.30;;;7.93;;
18726;SDS011;9492;51.888;5.186;2023-11-19T06:02:38;40.07;;;8.13;;
18726;SDS011;9492;51.888;5.186;2023-11-19T06:05:04;39.07;;;7.87;;
18726;SDS011;9492;51.888;5.186;2023-11-19T06:07:31;35.87;;;8.00;;
18726;SDS011;9492;51.888;5.186;2023-11-19T06:09:57;27.17;;;7.53;;
18726;SDS011;9492;51.888;5.186;2023-11-19T06:12:23;33.37;;;7.63;;
18726;SDS011;9492;51.888;5.186;2023-11-19T06:14:49;28.70;;;7.30;;
18726;SDS011;9492;51.888;5.186;2023-11-19T06:17:15;36.17;;;7.77;;
18726;SDS011;9492;51.888;5.186;2023-11-19T06:19:41;33.60;;;7.53;;
18726;SDS011;9492;51.888;5.186;2023-11-19T06:22:07;37.80;;;7.70;;
18726;SDS011;9492;51.888;5.186;2023-11-19T06:24:33;41.60;;;7.73;;
18726;SDS011;9492;51.888;5.186;2023-11-19T06:26:59;36.03;;;6.90;;
18726;SDS011;9492;51.888;5.186;2023-11-19T06:29:25;30.97;;;7.30;;
18726;SDS011;9492;51.888;5.186;2023-11-19T06:31:51;36.70;;;7.07;;
18726;SDS011;9492;51.888;5.186;2023-11-19T06:34:17;35.57;;;7.50;;
18726;SDS011;9492;51.888;5.186;2023-11-19T06:36:43;40.13;;;7.50;;
18726;SDS011;9492;51.888;5.186;2023-11-19T06:39:09;31.73;;;6.27;;
18726;SDS011;9492;51.888;5.186;2023-11-19T06:41:36;31.60;;;7.23;;
18726;SDS011;9492;51.888;5.186;2023-11-19T06:44:05;37.00;;;8.07;;
18726;SDS011;9492;51.888;5.186;2023-11-19T06:46:31;35.40;;;7.10;;
18726;SDS011;9492;51.888;5.186;2023-11-19T06:48:57;37.33;;;8.10;;
18726;SDS011;9492;51.888;5.186;2023-11-19T06:51:23;26.30;;;6.27;;
18726;SDS011;9492;51.888;5.186;2023-11-19T06:53:49;36.07;;;7.97;;
18726;SDS011;9492;51.888;5.186;2023-11-19T06:56:22;29.57;;;7.47;;
18726;SDS011;9492;51.888;5.186;2023-11-19T06:58:48;29.57;;;7.27;;
18726;SDS011;9492;51.888;5.186;2023-11-19T07:01:15;36.37;;;7.23;;
18726;SDS011;9492;51.888;5.186;2023-11-19T07:03:41;35.97;;;6.50;;
18726;SDS011;9492;51.888;5.186;2023-11-19T07:06:07;33.80;;;8.00;;
18726;SDS011;9492;51.888;5.186;2023-11-19T07:08:33;32.80;;;6.83;;
18726;SDS011;9492;51.888;5.186;2023-11-19T07:10:59;33.00;;;6.63;;
18726;SDS011;9492;51.888;5.186;2023-11-19T07:13:25;32.63;;;7.43;;
18726;SDS011;9492;51.888;5.186;2023-11-19T07:15:53;26.47;;;6.20;;
18726;SDS011;9492;51.888;5.186;2023-11-19T07:18:19;38.03;;;6.80;;
18726;SDS011;9492;51.888;5.186;2023-11-19T07:20:47;26.90;;;6.30;;
18726;SDS011;9492;51.888;5.186;2023-11-19T07:23:13;30.83;;;6.30;;
18726;SDS011;9492;51.888;5.186;2023-11-19T07:25:42;37.43;;;7.00;;
18726;SDS011;9492;51.888;5.186;2023-11-19T07:28:09;33.07;;;7.00;;
18726;SDS011;9492;51.888;5.186;2023-11-19T07:30:35;32.27;;;6.47;;
18726;SDS011;9492;51.888;5.186;2023-11-19T07:33:01;30.40;;;6.80;;
18726;SDS011;9492;51.888;5.186;2023-11-19T07:35:29;31.13;;;6.30;;
18726;SDS011;9492;51.888;5.186;2023-11-19T07:37:58;28.70;;;7.43;;
18726;SDS011;9492;51.888;5.186;2023-11-19T07:40:24;31.60;;;6.90;;
18726;SDS011;9492;51.888;5.186;2023-11-19T07:42:50;33.43;;;7.07;;
18726;SDS011;9492;51.888;5.186;2023-11-19T07:45:16;35.83;;;7.07;;
18726;SDS011;9492;51.888;5.186;2023-11-19T07:47:43;25.47;;;6.30;;
18726;SDS011;9492;51.888;5.186;2023-11-19T07:50:11;25.83;;;6.00;;
18726;SDS011;9492;51.888;5.186;2023-11-19T07:52:39;28.47;;;6.00;;
18726;SDS011;9492;51.888;5.186;2023-11-19T07:55:05;25.60;;;6.50;;
18726;SDS011;9492;51.888;5.186;2023-11-19T07:57:31;30.60;;;6.70;;
18726;SDS011;9492;51.888;5.186;2023-11-19T07:59:57;28.87;;;7.20;;
18726;SDS011;9492;51.888;5.186;2023-11-19T08:02:23;30.07;;;6.07;;
18726;SDS011;9492;51.888;5.186;2023-11-19T08:04:49;32.10;;;7.90;;
18726;SDS011;9492;51.888;5.186;2023-11-19T08:07:17;27.80;;;6.33;;
18726;SDS011;9492;51.888;5.186;2023-11-19T08:09:43;34.37;;;6.37;;
18726;SDS011;9492;51.888;5.186;2023-11-19T08:12:10;33.13;;;6.60;;
18726;SDS011;9492;51.888;5.186;2023-11-19T08:14:36;28.53;;;6.50;;
18726;SDS011;9492;51.888;5.186;2023-11-19T08:17:02;26.43;;;5.73;;
18726;SDS011;9492;51.888;5.186;2023-11-19T08:19:28;26.87;;;6.23;;
18726;SDS011;9492;51.888;5.186;2023-11-19T08:21:54;27.50;;;6.20;;
18726;SDS011;9492;51.888;5.186;2023-11-19T08:24:20;28.67;;;6.27;;
18726;SDS011;9492;51.888;5.186;2023-11-19T08:26:46;34.73;;;6.90;;
18726;SDS011;9492;51.888;5.186;2023-11-19T08:29:12;30.13;;;6.60;;
18726;SDS011;9492;51.888;5.186;2023-11-19T08:31:38;29.23;;;7.07;;
18726;SDS011;9492;51.888;5.186;2023-11-19T08:34:04;25.90;;;5.60;;
18726;SDS011;9492;51.888;5.186;2023-11-19T08:36:33;29.50;;;6.13;;
18726;SDS011;9492;51.888;5.186;2023-11-19T08:38:59;28.70;;;6.73;;
18726;SDS011;9492;51.888;5.186;2023-11-19T08:41:25;24.37;;;6.17;;
18726;SDS011;9492;51.888;5.186;2023-11-19T08:43:52;26.90;;;5.50;;
18726;SDS011;9492;51.888;5.186;2023-11-19T08:46:18;21.77;;;6.73;;
18726;SDS011;9492;51.888;5.186;2023-11-19T08:48:47;27.47;;;6.40;;
18726;SDS011;9492;51.888;5.186;2023-11-19T08:51:13;24.33;;;5.10;;
18726;SDS011;9492;51.888;5.186;2023-11-19T08:53:39;22.83;;;5.73;;
18726;SDS011;9492;51.888;5.186;2023-11-19T08:56:05;33.70;;;6.80;;
18726;SDS011;9492;51.888;5.186;2023-11-19T08:58:31;25.93;;;6.33;;
18726;SDS011;9492;51.888;5.186;2023-11-19T09:00:57;26.23;;;6.10;;
18726;SDS011;9492;51.888;5.186;2023-11-19T09:03:23;23.63;;;7.17;;
18726;SDS011;9492;51.888;5.186;2023-11-19T09:05:51;28.43;;;6.23;;
18726;SDS011;9492;51.888;5.186;2023-11-19T09:08:17;27.23;;;6.00;;
18726;SDS011;9492;51.888;5.186;2023-11-19T09:10:43;38.63;;;8.20;;
18726;SDS011;9492;51.888;5.186;2023-11-19T09:13:09;21.17;;;6.00;;
18726;SDS011;9492;51.888;5.186;2023-11-19T09:15:35;38.50;;;6.80;;
18726;SDS011;9492;51.888;5.186;2023-11-19T09:18:01;34.70;;;6.87;;
18726;SDS011;9492;51.888;5.186;2023-11-19T09:20:27;21.63;;;5.77;;
18726;SDS011;9492;51.888;5.186;2023-11-19T09:22:57;22.83;;;5.50;;
18726;SDS011;9492;51.888;5.186;2023-11-19T09:25:23;27.70;;;6.73;;
18726;SDS011;9492;51.888;5.186;2023-11-19T09:27:49;34.77;;;6.20;;
18726;SDS011;9492;51.888;5.186;2023-11-19T09:30:15;30.63;;;6.87;;
18726;SDS011;9492;51.888;5.186;2023-11-19T09:32:41;29.00;;;7.10;;
18726;SDS011;9492;51.888;5.186;2023-11-19T09:35:07;35.87;;;8.43;;
18726;SDS011;9492;51.888;5.186;2023-11-19T09:37:33;26.33;;;6.13;;
18726;SDS011;9492;51.888;5.186;2023-11-19T09:39:59;30.07;;;6.60;;
18726;SDS011;9492;51.888;5.186;2023-11-19T09:42:25;27.33;;;6.37;;
18726;SDS011;9492;51.888;5.186;2023-11-19T09:44:51;25.47;;;6.40;;
18726;SDS011;9492;51.888;5.186;2023-11-19T09:47:19;22.17;;;6.23;;
18726;SDS011;9492;51.888;5.186;2023-11-19T09:49:46;27.20;;;7.00;;
18726;SDS011;9492;51.888;5.186;2023-11-19T09:52:12;27.90;;;5.57;;
18726;SDS011;9492;51.888;5.186;2023-11-19T09:54:38;32.50;;;7.60;;
18726;SDS011;9492;51.888;5.186;2023-11-19T09:57:05;27.73;;;5.83;;
18726;SDS011;9492;51.888;5.186;2023-11-19T09:59:34;27.20;;;6.30;;
18726;SDS011;9492;51.888;5.186;2023-11-19T10:02:00;36.93;;;6.23;;
18726;SDS011;9492;51.888;5.186;2023-11-19T10:04:26;25.87;;;5.97;;
18726;SDS011;9492;51.888;5.186;2023-11-19T10:06:55;33.30;;;7.10;;
18726;SDS011;9492;51.888;5.186;2023-11-19T10:09:21;28.13;;;7.10;;
18726;SDS011;9492;51.888;5.186;2023-11-19T10:11:47;29.33;;;6.47;;
18726;SDS011;9492;51.888;5.186;2023-11-19T10:14:14;30.80;;;7.10;;
18726;SDS011;9492;51.888;5.186;2023-11-19T10:16:40;32.93;;;7.57;;
18726;SDS011;9492;51.888;5.186;2023-11-19T10:19:07;24.63;;;6.03;;
18726;SDS011;9492;51.888;5.186;2023-11-19T10:21:38;30.77;;;7.20;;
18726;SDS011;9492;51.888;5.186;2023-11-19T10:24:04;25.67;;;5.63;;
18726;SDS011;9492;51.888;5.186;2023-11-19T10:26:30;28.77;;;6.90;;
18726;SDS011;9492;51.888;5.186;2023-11-19T10:28:58;28.40;;;6.43;;
18726;SDS011;9492;51.888;5.186;2023-11-19T10:31:24;29.93;;;6.23;;
18726;SDS011;9492;51.888;5.186;2023-11-19T10:33:51;34.60;;;6.70;;
18726;SDS011;9492;51.888;5.186;2023-11-19T10:36:17;28.10;;;6.30;;
18726;SDS011;9492;51.888;5.186;2023-11-19T10:38:51;24.10;;;5.83;;
18726;SDS011;9492;51.888;5.186;2023-11-19T10:41:27;22.73;;;6.50;;
18726;SDS011;9492;51.888;5.186;2023-11-19T10:43:53;27.27;;;6.17;;
18726;SDS011;9492;51.888;5.186;2023-11-19T10:46:19;27.23;;;6.67;;
18726;SDS011;9492;51.888;5.186;2023-11-19T10:48:48;31.03;;;7.10;;
18726;SDS011;9492;51.888;5.186;2023-11-19T10:51:16;24.57;;;6.17;;
18726;SDS011;9492;51.888;5.186;2023-11-19T10:53:48;29.10;;;5.87;;
18726;SDS011;9492;51.888;5.186;2023-11-19T10:56:16;34.03;;;6.40;;
18726;SDS011;9492;51.888;5.186;2023-11-19T10:58:44;27.73;;;7.07;;
18726;SDS011;9492;51.888;5.186;2023-11-19T11:01:16;26.93;;;7.03;;
18726;SDS011;9492;51.888;5.186;2023-11-19T11:03:44;35.47;;;6.50;;
18726;SDS011;9492;51.888;5.186;2023-11-19T11:06:11;22.60;;;4.90;;
18726;SDS011;9492;51.888;5.186;2023-11-19T11:08:38;28.20;;;5.53;;
18726;SDS011;9492;51.888;5.186;2023-11-19T11:11:04;22.47;;;5.50;;
18726;SDS011;9492;51.888;5.186;2023-11-19T11:13:31;27.50;;;6.60;;
18726;SDS011;9492;51.888;5.186;2023-11-19T11:15:58;21.47;;;5.40;;
18726;SDS011;9492;51.888;5.186;2023-11-19T11:18:24;31.87;;;6.57;;
18726;SDS011;9492;51.888;5.186;2023-11-19T11:20:52;31.80;;;6.77;;
18726;SDS011;9492;51.888;5.186;2023-11-19T11:25:55;23.90;;;5.67;;
18726;SDS011;9492;51.888;5.186;2023-11-19T11:28:31;22.63;;;5.87;;
18726;SDS011;9492;51.888;5.186;2023-11-19T11:31:06;28.00;;;6.57;;
18726;SDS011;9492;51.888;5.186;2023-11-19T11:36:20;21.70;;;5.13;;
18726;SDS011;9492;51.888;5.186;2023-11-19T11:38:48;18.73;;;4.57;;
18726;SDS011;9492;51.888;5.186;2023-11-19T11:41:21;19.13;;;5.37;;
18726;SDS011;9492;51.888;5.186;2023-11-19T11:43:54;20.67;;;5.60;;
18726;SDS011;9492;51.888;5.186;2023-11-19T11:49:03;15.70;;;4.20;;
18726;SDS011;9492;51.888;5.186;2023-11-19T11:54:11;17.03;;;5.30;;
18726;SDS011;9492;51.888;5.186;2023-11-19T11:56:37;22.17;;;5.17;;
18726;SDS011;9492;51.888;5.186;2023-11-19T11:59:19;18.93;;;4.93;;
18726;SDS011;9492;51.888;5.186;2023-11-19T12:01:57;17.33;;;5.30;;
18726;SDS011;9492;51.888;5.186;2023-11-19T12:04:26;22.50;;;5.63;;
18726;SDS011;9492;51.888;5.186;2023-11-19T12:09:38;21.77;;;4.47;;
18726;SDS011;9492;51.888;5.186;2023-11-19T12:20:00;18.37;;;4.87;;
18726;SDS011;9492;51.888;5.186;2023-11-19T12:22:26;23.43;;;5.53;;
18726;SDS011;9492;51.888;5.186;2023-11-19T12:24:55;21.37;;;5.47;;
18726;SDS011;9492;51.888;5.186;2023-11-19T12:27:22;27.20;;;5.30;;
18726;SDS011;9492;51.888;5.186;2023-11-19T12:29:48;16.63;;;5.10;;
18726;SDS011;9492;51.888;5.186;2023-11-19T12:32:14;18.53;;;4.90;;
18726;SDS011;9492;51.888;5.186;2023-11-19T12:34:40;24.10;;;5.90;;
18726;SDS011;9492;51.888;5.186;2023-11-19T12:37:07;23.50;;;5.93;;
18726;SDS011;9492;51.888;5.186;2023-11-19T12:39:34;24.57;;;5.73;;
18726;SDS011;9492;51.888;5.186;2023-11-19T12:42:00;24.33;;;5.23;;
18726;SDS011;9492;51.888;5.186;2023-11-19T12:44:26;20.93;;;6.13;;
18726;SDS011;9492;51.888;5.186;2023-11-19T12:47:05;25.43;;;6.47;;
18726;SDS011;9492;51.888;5.186;2023-11-19T12:49:34;20.80;;;5.60;;
18726;SDS011;9492;51.888;5.186;2023-11-19T12:52:00;24.20;;;5.73;;
18726;SDS011;9492;51.888;5.186;2023-11-19T12:54:36;25.93;;;6.13;;
18726;SDS011;9492;51.888;5.186;2023-11-19T12:57:02;30.47;;;6.30;;
18726;SDS011;9492;51.888;5.186;2023-11-19T12:59:29;26.50;;;5.80;;
18726;SDS011;9492;51.888;5.186;2023-11-19T13:01:56;26.20;;;5.87;;
18726;SDS011;9492;51.888;5.186;2023-11-19T13:04:22;19.13;;;5.70;;
18726;SDS011;9492;51.888;5.186;2023-11-19T13:06:51;23.63;;;5.97;;
18726;SDS011;9492;51.888;5.186;2023-11-19T13:09:24;24.37;;;6.47;;
18726;SDS011;9492;51.888;5.186;2023-11-19T13:11:50;26.90;;;6.57;;
18726;SDS011;9492;51.888;5.186;2023-11-19T13:14:17;25.33;;;5.43;;
18726;SDS011;9492;51.888;5.186;2023-11-19T13:16:44;22.90;;;6.33;;
18726;SDS011;9492;51.888;5.186;2023-11-19T13:19:14;20.83;;;5.23;;
18726;SDS011;9492;51.888;5.186;2023-11-19T13:21:41;25.87;;;5.40;;
18726;SDS011;9492;51.888;5.186;2023-11-19T13:24:08;24.97;;;5.53;;
18726;SDS011;9492;51.888;5.186;2023-11-19T13:26:34;19.63;;;4.63;;
18726;SDS011;9492;51.888;5.186;2023-11-19T13:29:00;16.03;;;4.37;;
18726;SDS011;9492;51.888;5.186;2023-11-19T13:31:26;24.33;;;4.93;;
18726;SDS011;9492;51.888;5.186;2023-11-19T13:33:53;19.47;;;5.23;;
18726;SDS011;9492;51.888;5.186;2023-11-19T13:36:19;21.80;;;4.70;;
18726;SDS011;9492;51.888;5.186;2023-11-19T13:38:45;22.07;;;4.93;;
18726;SDS011;9492;51.888;5.186;2023-11-19T13:41:11;17.40;;;4.40;;
18726;SDS011;9492;51.888;5.186;2023-11-19T13:43:38;26.10;;;4.90;;
18726;SDS011;9492;51.888;5.186;2023-11-19T13:46:05;29.13;;;6.27;;
18726;SDS011;9492;51.888;5.186;2023-11-19T13:48:31;16.50;;;4.87;;
18726;SDS011;9492;51.888;5.186;2023-11-19T13:50:57;26.30;;;5.73;;
18726;SDS011;9492;51.888;5.186;2023-11-19T13:53:23;19.20;;;4.50;;
18726;SDS011;9492;51.888;5.186;2023-11-19T13:55:49;14.67;;;4.57;;
18726;SDS011;9492;51.888;5.186;2023-11-19T13:58:15;17.17;;;3.80;;
18726;SDS011;9492;51.888;5.186;2023-11-19T14:00:42;17.00;;;5.03;;
18726;SDS011;9492;51.888;5.186;2023-11-19T14:03:08;16.80;;;4.70;;
18726;SDS011;9492;51.888;5.186;2023-11-19T14:05:37;22.67;;;5.77;;
18726;SDS011;9492;51.888;5.186;2023-11-19T14:08:04;23.43;;;5.77;;
18726;SDS011;9492;51.888;5.186;2023-11-19T14:10:37;18.97;;;5.27;;
18726;SDS011;9492;51.888;5.186;2023-11-19T14:13:04;24.40;;;5.20;;
18726;SDS011;9492;51.888;5.186;2023-11-19T14:15:30;13.00;;;4.20;;
18726;SDS011;9492;51.888;5.186;2023-11-19T14:17:56;18.63;;;4.40;;
18726;SDS011;9492;51.888;5.186;2023-11-19T14:20:22;17.70;;;4.17;;
18726;SDS011;9492;51.888;5.186;2023-11-19T14:22:49;21.90;;;5.50;;
18726;SDS011;9492;51.888;5.186;2023-11-19T14:25:16;23.10;;;4.60;;
18726;SDS011;9492;51.888;5.186;2023-11-19T14:27:43;22.63;;;5.03;;
18726;SDS011;9492;51.888;5.186;2023-11-19T14:30:12;19.47;;;4.73;;
18726;SDS011;9492;51.888;5.186;2023-11-19T14:32:39;18.00;;;5.13;;
18726;SDS011;9492;51.888;5.186;2023-11-19T14:35:05;22.40;;;4.73;;
18726;SDS011;9492;51.888;5.186;2023-11-19T14:37:31;20.03;;;5.00;;
18726;SDS011;9492;51.888;5.186;2023-11-19T14:39:57;22.90;;;5.30;;
18726;SDS011;9492;51.888;5.186;2023-11-19T14:42:24;19.67;;;4.77;;
18726;SDS011;9492;51.888;5.186;2023-11-19T14:44:53;15.90;;;4.83;;
18726;SDS011;9492;51.888;5.186;2023-11-19T14:47:22;19.40;;;4.43;;
18726;SDS011;9492;51.888;5.186;2023-11-19T14:49:48;22.20;;;5.00;;
18726;SDS011;9492;51.888;5.186;2023-11-19T14:52:14;22.37;;;4.83;;
18726;SDS011;9492;51.888;5.186;2023-11-19T14:54:40;18.00;;;5.07;;
18726;SDS011;9492;51.888;5.186;2023-11-19T14:57:07;14.43;;;4.33;;
18726;SDS011;9492;51.888;5.186;2023-11-19T14:59:33;23.47;;;5.83;;
18726;SDS011;9492;51.888;5.186;2023-11-19T15:01:59;17.30;;;4.30;;
18726;SDS011;9492;51.888;5.186;2023-11-19T15:04:26;20.23;;;5.03;;
18726;SDS011;9492;51.888;5.186;2023-11-19T15:06:52;21.17;;;5.47;;